sensor_id;sensor_type;location;lat;lon;timestamp;temperature;humidity
22706;DHT22;11520;51.198;4.468;2023-04-01T00:01:00;10.40;99.90
22706;DHT22;11520;51.198;4.468;2023-04-01T00:03:26;10.40;99.90
22706;DHT22;11520;51.198;4.468;2023-04-01T00:05:54;10.40;99.90
22706;DHT22;11520;51.198;4.468;2023-04-01T00:08:22;10.50;99.90
22706;DHT22;11520;51.198;4.468;2023-04-01T00:10:50;10.40;99.90
22706;DHT22;11520;51.198;4.468;2023-04-01T00:13:16;10.50;99.90
22706;DHT22;11520;51.198;4.468;2023-04-01T00:15:42;10.40;99.90
22706;DHT22;11520;51.198;4.468;2023-04-01T00:18:11;10.50;99.90
22706;DHT22;11520;51.198;4.468;2023-04-01T00:20:37;10.40;99.90
22706;DHT22;11520;51.198;4.468;2023-04-01T00:23:03;10.40;99.90
22706;DHT22;11520;51.198;4.468;2023-04-01T00:25:30;10.40;99.90
22706;DHT22;11520;51.198;4.468;2023-04-01T00:27:56;10.40;99.90
22706;DHT22;11520;51.198;4.468;2023-04-01T00:30:25;10.50;99.90
22706;DHT22;11520;51.198;4.468;2023-04-01T00:32:52;10.50;99.90
22706;DHT22;11520;51.198;4.468;2023-04-01T00:35:18;10.50;99.90
22706;DHT22;11520;51.198;4.468;2023-04-01T00:37:45;10.50;99.90
22706;DHT22;11520;51.198;4.468;2023-04-01T00:40:37;10.50;99.90
22706;DHT22;11520;51.198;4.468;2023-04-01T00:43:14;10.60;99.90
22706;DHT22;11520;51.198;4.468;2023-04-01T00:45:42;10.60;99.90
22706;DHT22;11520;51.198;4.468;2023-04-01T00:48:16;10.60;99.90
22706;DHT22;11520;51.198;4.468;2023-04-01T00:50:50;10.60;99.90
22706;DHT22;11520;51.198;4.468;2023-04-01T00:53:19;10.60;99.90
22706;DHT22;11520;51.198;4.468;2023-04-01T00:55:57;10.70;99.90
22706;DHT22;11520;51.198;4.468;2023-04-01T00:58:24;10.70;99.90
22706;DHT22;11520;51.198;4.468;2023-04-01T01:00:52;10.60;99.90
22706;DHT22;11520;51.198;4.468;2023-04-01T01:03:18;10.70;99.90
22706;DHT22;11520;51.198;4.468;2023-04-01T01:06:16;10.70;99.90
22706;DHT22;11520;51.198;4.468;2023-04-01T01:16:45;10.60;99.90
22706;DHT22;11520;51.198;4.468;2023-04-01T01:27:34;10.70;99.90
22706;DHT22;11520;51.198;4.468;2023-04-01T01:33:05;10.50;99.90
22706;DHT22;11520;51.198;4.468;2023-04-01T01:35:46;10.50;99.90
22706;DHT22;11520;51.198;4.468;2023-04-01T01:38:19;10.50;99.90
22706;DHT22;11520;51.198;4.468;2023-04-01T01:40:50;10.50;99.90
22706;DHT22;11520;51.198;4.468;2023-04-01T01:43:23;10.40;99.90
22706;DHT22;11520;51.198;4.468;2023-04-01T01:45:54;10.40;99.90
22706;DHT22;11520;51.198;4.468;2023-04-01T01:48:20;10.40;99.90
22706;DHT22;11520;51.198;4.468;2023-04-01T01:50:48;10.40;99.90
22706;DHT22;11520;51.198;4.468;2023-04-01T01:53:14;10.40;99.90
22706;DHT22;11520;51.198;4.468;2023-04-01T01:55:43;10.30;99.90
22706;DHT22;11520;51.198;4.468;2023-04-01T01:58:22;10.30;99.90
22706;DHT22;11520;51.198;4.468;2023-04-01T02:01:03;10.30;99.90
22706;DHT22;11520;51.198;4.468;2023-04-01T02:03:34;10.30;99.90
22706;DHT22;11520;51.198;4.468;2023-04-01T02:06:05;10.30;99.90
22706;DHT22;11520;51.198;4.468;2023-04-01T02:08:45;10.20;99.90
22706;DHT22;11520;51.198;4.468;2023-04-01T02:11:16;10.20;99.90
22706;DHT22;11520;51.198;4.468;2023-04-01T02:13:52;10.20;99.90
22706;DHT22;11520;51.198;4.468;2023-04-01T02:16:48;10.20;99.90
22706;DHT22;11520;51.198;4.468;2023-04-01T02:19:17;10.30;99.90
22706;DHT22;11520;51.198;4.468;2023-04-01T02:21:50;10.30;99.90
22706;DHT22;11520;51.198;4.468;2023-04-01T02:24:18;10.20;99.90
22706;DHT22;11520;51.198;4.468;2023-04-01T02:26:46;10.30;99.90
22706;DHT22;11520;51.198;4.468;2023-04-01T02:29:12;10.30;99.90
22706;DHT22;11520;51.198;4.468;2023-04-01T02:31:39;10.30;99.90
22706;DHT22;11520;51.198;4.468;2023-04-01T02:34:06;10.20;99.90
22706;DHT22;11520;51.198;4.468;2023-04-01T02:36:32;10.20;99.90
22706;DHT22;11520;51.198;4.468;2023-04-01T02:39:01;10.10;99.90
22706;DHT22;11520;51.198;4.468;2023-04-01T02:41:29;10.10;99.90
22706;DHT22;11520;51.198;4.468;2023-04-01T02:43:57;10.10;99.90
22706;DHT22;11520;51.198;4.468;2023-04-01T02:46:24;10.10;99.90
22706;DHT22;11520;51.198;4.468;2023-04-01T02:48:50;10.10;99.90
22706;DHT22;11520;51.198;4.468;2023-04-01T02:51:15;10.10;99.90
22706;DHT22;11520;51.198;4.468;2023-04-01T02:53:41;10.10;99.90
22706;DHT22;11520;51.198;4.468;2023-04-01T02:56:07;10.10;99.90
22706;DHT22;11520;51.198;4.468;2023-04-01T02:58:35;10.10;99.90
22706;DHT22;11520;51.198;4.468;2023-04-01T03:01:00;10.10;99.90
22706;DHT22;11520;51.198;4.468;2023-04-01T03:03:28;10.10;99.90
22706;DHT22;11520;51.198;4.468;2023-04-01T03:05:54;10.10;99.90
22706;DHT22;11520;51.198;4.468;2023-04-01T03:08:21;10.20;99.90
22706;DHT22;11520;51.198;4.468;2023-04-01T03:10:48;10.10;99.90
22706;DHT22;11520;51.198;4.468;2023-04-01T03:13:15;10.10;99.90
22706;DHT22;11520;51.198;4.468;2023-04-01T03:15:41;10.10;99.90
22706;DHT22;11520;51.198;4.468;2023-04-01T03:18:06;10.10;99.90
22706;DHT22;11520;51.198;4.468;2023-04-01T03:20:34;10.10;99.90
22706;DHT22;11520;51.198;4.468;2023-04-01T03:23:01;10.10;99.90
22706;DHT22;11520;51.198;4.468;2023-04-01T03:25:27;10.00;99.90
22706;DHT22;11520;51.198;4.468;2023-04-01T03:27:54;10.00;99.90
22706;DHT22;11520;51.198;4.468;2023-04-01T03:30:21;10.00;99.90
22706;DHT22;11520;51.198;4.468;2023-04-01T03:32:47;10.00;99.90
22706;DHT22;11520;51.198;4.468;2023-04-01T03:35:14;10.10;99.90
22706;DHT22;11520;51.198;4.468;2023-04-01T03:37:40;10.10;99.90
22706;DHT22;11520;51.198;4.468;2023-04-01T03:40:06;10.10;99.90
22706;DHT22;11520;51.198;4.468;2023-04-01T03:42:32;10.10;99.90
22706;DHT22;11520;51.198;4.468;2023-04-01T03:45:02;10.20;99.90
22706;DHT22;11520;51.198;4.468;2023-04-01T03:47:28;10.10;99.90
22706;DHT22;11520;51.198;4.468;2023-04-01T03:49:55;10.20;99.90
22706;DHT22;11520;51.198;4.468;2023-04-01T03:52:22;10.10;99.90
22706;DHT22;11520;51.198;4.468;2023-04-01T03:54:47;10.10;99.90
22706;DHT22;11520;51.198;4.468;2023-04-01T03:57:13;10.00;99.90
22706;DHT22;11520;51.198;4.468;2023-04-01T03:59:39;10.00;99.90
22706;DHT22;11520;51.198;4.468;2023-04-01T04:02:06;10.00;99.90
22706;DHT22;11520;51.198;4.468;2023-04-01T04:04:34;10.00;99.90
22706;DHT22;11520;51.198;4.468;2023-04-01T04:07:00;10.00;99.90
22706;DHT22;11520;51.198;4.468;2023-04-01T04:09:33;10.10;99.90
22706;DHT22;11520;51.198;4.468;2023-04-01T04:12:00;10.20;99.90
22706;DHT22;11520;51.198;4.468;2023-04-01T04:14:28;10.20;99.90
22706;DHT22;11520;51.198;4.468;2023-04-01T04:16:55;10.20;99.90
22706;DHT22;11520;51.198;4.468;2023-04-01T04:19:22;10.10;99.90
22706;DHT22;11520;51.198;4.468;2023-04-01T04:21:48;10.10;99.90
22706;DHT22;11520;51.198;4.468;2023-04-01T04:24:14;10.00;99.90
22706;DHT22;11520;51.198;4.468;2023-04-01T04:26:40;10.10;99.90
22706;DHT22;11520;51.198;4.468;2023-04-01T04:29:06;10.10;99.90
22706;DHT22;11520;51.198;4.468;2023-04-01T04:31:32;10.10;99.90
22706;DHT22;11520;51.198;4.468;2023-04-01T04:34:00;10.20;99.90
22706;DHT22;11520;51.198;4.468;2023-04-01T04:36:27;10.20;99.90
22706;DHT22;11520;51.198;4.468;2023-04-01T04:38:54;10.20;99.90
22706;DHT22;11520;51.198;4.468;2023-04-01T04:41:20;10.10;99.90
22706;DHT22;11520;51.198;4.468;2023-04-01T04:43:56;10.10;99.90
22706;DHT22;11520;51.198;4.468;2023-04-01T04:46:24;10.10;99.90
22706;DHT22;11520;51.198;4.468;2023-04-01T04:48:50;10.10;99.90
22706;DHT22;11520;51.198;4.468;2023-04-01T04:51:17;10.00;99.90
22706;DHT22;11520;51.198;4.468;2023-04-01T04:53:45;10.00;99.90
22706;DHT22;11520;51.198;4.468;2023-04-01T04:56:11;10.00;99.90
22706;DHT22;11520;51.198;4.468;2023-04-01T04:58:39;9.90;99.90
22706;DHT22;11520;51.198;4.468;2023-04-01T05:01:13;10.00;99.90
22706;DHT22;11520;51.198;4.468;2023-04-01T05:03:41;10.00;99.90
22706;DHT22;11520;51.198;4.468;2023-04-01T05:06:10;10.00;99.90
22706;DHT22;11520;51.198;4.468;2023-04-01T05:08:37;10.00;99.90
22706;DHT22;11520;51.198;4.468;2023-04-01T05:11:07;9.90;99.90
22706;DHT22;11520;51.198;4.468;2023-04-01T05:13:35;9.90;99.90
22706;DHT22;11520;51.198;4.468;2023-04-01T05:16:07;10.00;99.90
22706;DHT22;11520;51.198;4.468;2023-04-01T05:18:33;10.00;99.90
22706;DHT22;11520;51.198;4.468;2023-04-01T05:21:00;10.00;99.90
22706;DHT22;11520;51.198;4.468;2023-04-01T05:23:27;10.00;99.90
22706;DHT22;11520;51.198;4.468;2023-04-01T05:25:53;10.00;99.90
22706;DHT22;11520;51.198;4.468;2023-04-01T05:28:19;10.00;99.90
22706;DHT22;11520;51.198;4.468;2023-04-01T05:30:45;10.10;99.90
22706;DHT22;11520;51.198;4.468;2023-04-01T05:33:16;10.00;99.90
22706;DHT22;11520;51.198;4.468;2023-04-01T05:35:41;9.90;99.90
22706;DHT22;11520;51.198;4.468;2023-04-01T05:38:08;9.90;99.90
22706;DHT22;11520;51.198;4.468;2023-04-01T05:40:35;9.90;99.90
22706;DHT22;11520;51.198;4.468;2023-04-01T05:43:03;10.00;99.90
22706;DHT22;11520;51.198;4.468;2023-04-01T05:45:28;9.90;99.90
22706;DHT22;11520;51.198;4.468;2023-04-01T05:47:54;9.90;99.90
22706;DHT22;11520;51.198;4.468;2023-04-01T05:50:20;10.00;99.90
22706;DHT22;11520;51.198;4.468;2023-04-01T05:52:47;10.00;99.90
22706;DHT22;11520;51.198;4.468;2023-04-01T05:55:13;10.00;99.90
22706;DHT22;11520;51.198;4.468;2023-04-01T05:57:38;10.00;99.90
22706;DHT22;11520;51.198;4.468;2023-04-01T06:00:05;10.10;99.90
22706;DHT22;11520;51.198;4.468;2023-04-01T06:02:31;10.10;99.90
22706;DHT22;11520;51.198;4.468;2023-04-01T06:07:42;10.10;99.90
22706;DHT22;11520;51.198;4.468;2023-04-01T06:10:19;10.00;99.90
22706;DHT22;11520;51.198;4.468;2023-04-01T06:15:34;9.90;99.90
22706;DHT22;11520;51.198;4.468;2023-04-01T06:21:34;9.90;99.90
22706;DHT22;11520;51.198;4.468;2023-04-01T06:35:40;10.20;99.90
22706;DHT22;11520;51.198;4.468;2023-04-01T06:38:52;10.20;99.90
22706;DHT22;11520;51.198;4.468;2023-04-01T06:41:58;10.20;99.90
22706;DHT22;11520;51.198;4.468;2023-04-01T06:44:37;10.20;99.90
22706;DHT22;11520;51.198;4.468;2023-04-01T06:47:42;10.20;99.90
22706;DHT22;11520;51.198;4.468;2023-04-01T06:50:30;10.20;99.90
22706;DHT22;11520;51.198;4.468;2023-04-01T06:56:13;10.10;99.90
22706;DHT22;11520;51.198;4.468;2023-04-01T06:58:42;10.20;99.90
22706;DHT22;11520;51.198;4.468;2023-04-01T07:01:23;10.30;99.90
22706;DHT22;11520;51.198;4.468;2023-04-01T07:03:58;10.30;99.90
22706;DHT22;11520;51.198;4.468;2023-04-01T07:09:27;10.20;99.90
22706;DHT22;11520;51.198;4.468;2023-04-01T07:12:02;10.20;99.90
22706;DHT22;11520;51.198;4.468;2023-04-01T07:14:37;10.20;99.90
22706;DHT22;11520;51.198;4.468;2023-04-01T07:17:17;10.20;99.90
22706;DHT22;11520;51.198;4.468;2023-04-01T07:20:20;10.30;99.90
22706;DHT22;11520;51.198;4.468;2023-04-01T07:22:44;10.20;99.90
22706;DHT22;11520;51.198;4.468;2023-04-01T07:25:17;10.30;99.90
22706;DHT22;11520;51.198;4.468;2023-04-01T07:27:46;10.40;99.90
22706;DHT22;11520;51.198;4.468;2023-04-01T07:30:20;10.40;99.90
22706;DHT22;11520;51.198;4.468;2023-04-01T07:32:59;10.30;99.90
22706;DHT22;11520;51.198;4.468;2023-04-01T07:35:52;10.40;99.90
22706;DHT22;11520;51.198;4.468;2023-04-01T07:52:01;10.50;99.90
22706;DHT22;11520;51.198;4.468;2023-04-01T07:54:57;10.40;99.90
22706;DHT22;11520;51.198;4.468;2023-04-01T08:08:52;10.50;99.90
22706;DHT22;11520;51.198;4.468;2023-04-01T08:14:24;10.50;99.90
22706;DHT22;11520;51.198;4.468;2023-04-01T08:17:11;10.50;99.90
22706;DHT22;11520;51.198;4.468;2023-04-01T08:20:23;10.60;99.90
22706;DHT22;11520;51.198;4.468;2023-04-01T08:22:30;10.60;99.90
22706;DHT22;11520;51.198;4.468;2023-04-01T08:25:02;10.80;99.90
22706;DHT22;11520;51.198;4.468;2023-04-01T08:30:05;10.80;99.90
22706;DHT22;11520;51.198;4.468;2023-04-01T08:32:42;10.80;99.90
22706;DHT22;11520;51.198;4.468;2023-04-01T08:35:21;10.90;99.90
22706;DHT22;11520;51.198;4.468;2023-04-01T08:37:53;10.90;99.90
22706;DHT22;11520;51.198;4.468;2023-04-01T08:52:21;10.80;99.90
22706;DHT22;11520;51.198;4.468;2023-04-01T08:55:27;10.90;99.90
22706;DHT22;11520;51.198;4.468;2023-04-01T09:04:22;11.10;99.90
22706;DHT22;11520;51.198;4.468;2023-04-01T09:10:06;10.90;99.90
22706;DHT22;11520;51.198;4.468;2023-04-01T09:18:47;11.00;99.90
22706;DHT22;11520;51.198;4.468;2023-04-01T09:24:21;11.00;99.90
22706;DHT22;11520;51.198;4.468;2023-04-01T09:27:00;11.20;99.90
22706;DHT22;11520;51.198;4.468;2023-04-01T09:37:57;11.50;99.90
22706;DHT22;11520;51.198;4.468;2023-04-01T09:43:28;11.70;99.90
22706;DHT22;11520;51.198;4.468;2023-04-01T09:48:54;11.50;99.90
22706;DHT22;11520;51.198;4.468;2023-04-01T09:51:33;11.50;99.90
22706;DHT22;11520;51.198;4.468;2023-04-01T10:11:05;11.60;99.90
22706;DHT22;11520;51.198;4.468;2023-04-01T10:16:52;11.40;99.90
22706;DHT22;11520;51.198;4.468;2023-04-01T10:19:34;11.50;99.90
22706;DHT22;11520;51.198;4.468;2023-04-01T10:22:55;11.60;99.90
22706;DHT22;11520;51.198;4.468;2023-04-01T10:28:38;11.80;99.90
22706;DHT22;11520;51.198;4.468;2023-04-01T10:36:56;11.90;99.90
22706;DHT22;11520;51.198;4.468;2023-04-01T11:33:09;11.80;99.90
22706;DHT22;11520;51.198;4.468;2023-04-01T11:41:51;11.70;99.90
22706;DHT22;11520;51.198;4.468;2023-04-01T11:44:28;11.60;99.90
22706;DHT22;11520;51.198;4.468;2023-04-01T11:58:36;12.30;99.90
22706;DHT22;11520;51.198;4.468;2023-04-01T12:01:17;12.40;99.90
22706;DHT22;11520;51.198;4.468;2023-04-01T12:09:45;12.70;99.90
22706;DHT22;11520;51.198;4.468;2023-04-01T12:12:30;12.80;99.90
22706;DHT22;11520;51.198;4.468;2023-04-01T12:15:23;12.70;99.90
22706;DHT22;11520;51.198;4.468;2023-04-01T12:18:17;12.70;99.90
22706;DHT22;11520;51.198;4.468;2023-04-01T12:26:56;12.40;99.90
22706;DHT22;11520;51.198;4.468;2023-04-01T12:29:54;12.70;99.90
22706;DHT22;11520;51.198;4.468;2023-04-01T12:40:48;13.50;99.90
22706;DHT22;11520;51.198;4.468;2023-04-01T12:49:34;13.00;99.90
22706;DHT22;11520;51.198;4.468;2023-04-01T12:52:09;12.70;99.90
22706;DHT22;11520;51.198;4.468;2023-04-01T12:54:58;12.70;99.90
22706;DHT22;11520;51.198;4.468;2023-04-01T13:12:10;12.30;99.90
22706;DHT22;11520;51.198;4.468;2023-04-01T13:20:53;12.30;99.90
22706;DHT22;11520;51.198;4.468;2023-04-01T13:26:34;12.30;99.90
22706;DHT22;11520;51.198;4.468;2023-04-01T13:43:28;12.10;99.90
22706;DHT22;11520;51.198;4.468;2023-04-01T13:49:08;12.10;99.90
22706;DHT22;11520;51.198;4.468;2023-04-01T13:52:19;12.00;99.90
22706;DHT22;11520;51.198;4.468;2023-04-01T13:58:19;12.30;99.90
22706;DHT22;11520;51.198;4.468;2023-04-01T14:04:14;12.30;99.90
22706;DHT22;11520;51.198;4.468;2023-04-01T14:26:10;12.40;99.90
22706;DHT22;11520;51.198;4.468;2023-04-01T14:32:22;12.40;99.90
22706;DHT22;11520;51.198;4.468;2023-04-01T14:40:19;12.30;99.90
22706;DHT22;11520;51.198;4.468;2023-04-01T14:42:53;12.50;99.90
22706;DHT22;11520;51.198;4.468;2023-04-01T14:48:57;12.60;99.90
22706;DHT22;11520;51.198;4.468;2023-04-01T14:53:38;12.70;99.90
22706;DHT22;11520;51.198;4.468;2023-04-01T14:56:07;12.50;99.90
22706;DHT22;11520;51.198;4.468;2023-04-01T14:58:46;12.40;99.90
22706;DHT22;11520;51.198;4.468;2023-04-01T15:01:31;12.30;99.90
22706;DHT22;11520;51.198;4.468;2023-04-01T15:27:00;11.90;99.90
22706;DHT22;11520;51.198;4.468;2023-04-01T15:32:52;11.80;99.90
22706;DHT22;11520;51.198;4.468;2023-04-01T15:35:56;11.70;99.90
22706;DHT22;11520;51.198;4.468;2023-04-01T15:43:54;11.70;99.90
22706;DHT22;11520;51.198;4.468;2023-04-01T15:46:48;11.60;99.90
22706;DHT22;11520;51.198;4.468;2023-04-01T15:49:43;11.30;99.90
22706;DHT22;11520;51.198;4.468;2023-04-01T15:55:24;11.20;99.90
22706;DHT22;11520;51.198;4.468;2023-04-01T16:04:25;11.10;99.90
22706;DHT22;11520;51.198;4.468;2023-04-01T16:09:40;11.50;99.90
22706;DHT22;11520;51.198;4.468;2023-04-01T16:12:18;11.50;99.90
22706;DHT22;11520;51.198;4.468;2023-04-01T16:20:42;11.20;99.90
22706;DHT22;11520;51.198;4.468;2023-04-01T16:23:20;11.10;99.90
22706;DHT22;11520;51.198;4.468;2023-04-01T16:26:16;11.00;99.90
22706;DHT22;11520;51.198;4.468;2023-04-01T16:28:55;11.00;99.90
22706;DHT22;11520;51.198;4.468;2023-04-01T16:37:22;11.10;99.90
22706;DHT22;11520;51.198;4.468;2023-04-01T16:45:45;11.00;99.90
22706;DHT22;11520;51.198;4.468;2023-04-01T16:48:24;11.10;99.90
22706;DHT22;11520;51.198;4.468;2023-04-01T16:51:07;11.10;99.90
22706;DHT22;11520;51.198;4.468;2023-04-01T16:53:44;11.30;99.90
22706;DHT22;11520;51.198;4.468;2023-04-01T16:59:14;11.10;99.90
22706;DHT22;11520;51.198;4.468;2023-04-01T17:01:51;11.10;99.90
22706;DHT22;11520;51.198;4.468;2023-04-01T17:04:48;11.20;99.90
22706;DHT22;11520;51.198;4.468;2023-04-01T17:21:16;10.90;99.90
22706;DHT22;11520;51.198;4.468;2023-04-01T17:26:42;10.70;99.90
22706;DHT22;11520;51.198;4.468;2023-04-01T17:29:33;10.60;99.90
22706;DHT22;11520;51.198;4.468;2023-04-01T17:32:16;10.50;99.90
22706;DHT22;11520;51.198;4.468;2023-04-01T17:35:02;10.20;99.90
22706;DHT22;11520;51.198;4.468;2023-04-01T17:49:42;10.00;99.90
22706;DHT22;11520;51.198;4.468;2023-04-01T17:58:06;10.10;99.90
22706;DHT22;11520;51.198;4.468;2023-04-01T18:01:02;10.10;99.90
22706;DHT22;11520;51.198;4.468;2023-04-01T18:30:02;9.90;99.90
22706;DHT22;11520;51.198;4.468;2023-04-01T18:33:09;9.90;99.90
22706;DHT22;11520;51.198;4.468;2023-04-01T18:38:16;9.90;99.90
22706;DHT22;11520;51.198;4.468;2023-04-01T18:51:55;10.00;99.90
22706;DHT22;11520;51.198;4.468;2023-04-01T18:54:32;10.00;99.90
22706;DHT22;11520;51.198;4.468;2023-04-01T18:57:12;10.00;99.90
22706;DHT22;11520;51.198;4.468;2023-04-01T19:02:41;10.10;99.90
22706;DHT22;11520;51.198;4.468;2023-04-01T19:05:19;10.10;99.90
22706;DHT22;11520;51.198;4.468;2023-04-01T19:11:16;10.10;99.90
22706;DHT22;11520;51.198;4.468;2023-04-01T19:17:01;10.10;99.90
22706;DHT22;11520;51.198;4.468;2023-04-01T19:25:35;10.20;99.90
22706;DHT22;11520;51.198;4.468;2023-04-01T19:33:59;10.00;99.90
22706;DHT22;11520;51.198;4.468;2023-04-01T19:37:25;10.00;99.90
22706;DHT22;11520;51.198;4.468;2023-04-01T19:42:52;10.00;99.90
22706;DHT22;11520;51.198;4.468;2023-04-01T19:45:42;10.10;99.90
22706;DHT22;11520;51.198;4.468;2023-04-01T19:51:10;10.10;99.90
22706;DHT22;11520;51.198;4.468;2023-04-01T19:53:46;10.10;99.90
22706;DHT22;11520;51.198;4.468;2023-04-01T19:56:24;10.10;99.90
22706;DHT22;11520;51.198;4.468;2023-04-01T20:04:52;10.20;99.90
22706;DHT22;11520;51.198;4.468;2023-04-01T20:07:46;10.20;99.90
22706;DHT22;11520;51.198;4.468;2023-04-01T20:15:39;10.10;99.90
22706;DHT22;11520;51.198;4.468;2023-04-01T20:18:21;10.00;99.90
22706;DHT22;11520;51.198;4.468;2023-04-01T20:22:00;10.00;99.90
22706;DHT22;11520;51.198;4.468;2023-04-01T20:24:26;10.00;99.90
22706;DHT22;11520;51.198;4.468;2023-04-01T20:27:14;10.00;99.90
22706;DHT22;11520;51.198;4.468;2023-04-01T20:33:50;9.90;99.90
22706;DHT22;11520;51.198;4.468;2023-04-01T20:53:51;10.00;99.90
22706;DHT22;11520;51.198;4.468;2023-04-01T20:56:43;9.90;99.90
22706;DHT22;11520;51.198;4.468;2023-04-01T20:59:25;9.90;99.90
22706;DHT22;11520;51.198;4.468;2023-04-01T21:07:47;9.90;99.90
22706;DHT22;11520;51.198;4.468;2023-04-01T21:33:59;9.70;99.90
22706;DHT22;11520;51.198;4.468;2023-04-01T22:02:33;9.60;99.90
22706;DHT22;11520;51.198;4.468;2023-04-01T22:05:33;9.70;99.90
22706;DHT22;11520;51.198;4.468;2023-04-01T22:10:52;9.50;99.90
22706;DHT22;11520;51.198;4.468;2023-04-01T22:13:50;9.70;99.90
22706;DHT22;11520;51.198;4.468;2023-04-01T22:16:39;9.60;99.90
22706;DHT22;11520;51.198;4.468;2023-04-01T22:19:30;9.50;99.90
22706;DHT22;11520;51.198;4.468;2023-04-01T22:25:17;9.50;99.90
22706;DHT22;11520;51.198;4.468;2023-04-01T22:27:58;9.40;99.90
22706;DHT22;11520;51.198;4.468;2023-04-01T22:30:34;9.40;99.90
22706;DHT22;11520;51.198;4.468;2023-04-01T22:42:10;9.50;99.90
22706;DHT22;11520;51.198;4.468;2023-04-01T22:53:21;9.50;99.90
22706;DHT22;11520;51.198;4.468;2023-04-01T22:56:02;9.40;99.90
22706;DHT22;11520;51.198;4.468;2023-04-01T22:58:40;9.30;99.90
22706;DHT22;11520;51.198;4.468;2023-04-01T23:01:13;9.20;99.90
22706;DHT22;11520;51.198;4.468;2023-04-01T23:03:44;9.20;99.90
22706;DHT22;11520;51.198;4.468;2023-04-01T23:06:20;9.10;99.90
22706;DHT22;11520;51.198;4.468;2023-04-01T23:09:21;9.10;99.90
22706;DHT22;11520;51.198;4.468;2023-04-01T23:11:55;9.10;99.90
22706;DHT22;11520;51.198;4.468;2023-04-01T23:20:07;9.00;99.90
22706;DHT22;11520;51.198;4.468;2023-04-01T23:25:32;9.00;99.90
22706;DHT22;11520;51.198;4.468;2023-04-01T23:38:20;9.10;99.90
22706;DHT22;11520;51.198;4.468;2023-04-01T23:40:53;9.00;99.90
22706;DHT22;11520;51.198;4.468;2023-04-01T23:43:25;8.90;99.90
22706;DHT22;11520;51.198;4.468;2023-04-01T23:45:54;8.90;99.90
22706;DHT22;11520;51.198;4.468;2023-04-01T23:48:27;8.80;99.90
22706;DHT22;11520;51.198;4.468;2023-04-01T23:50:55;8.80;99.90
22706;DHT22;11520;51.198;4.468;2023-04-01T23:53:34;8.70;99.90
22706;DHT22;11520;51.198;4.468;2023-04-01T23:56:02;8.80;99.90
22706;DHT22;11520;51.198;4.468;2023-04-01T23:58:49;8.80;99.90
